Time;durP1;ratioP1;P1;durP2;ratioP2;P2;SDS_P1;SDS_P2;PMS_P1;PMS_P2;Temp;Humidity;BMP_temperature;BMP_pressure;BME280_temperature;BME280_humidity;BME280_pressure;Samples;Min_cycle;Max_cycle;Signal;HPM_P1;HPM_P2
2022/08/05 00:02:13;;;;;;;14.02;7.35;;;;;;;25.25;61.28;99392.00;5092266;28;20584;-63
2022/08/05 00:04:40;;;;;;;8.18;7.38;;;;;;;25.21;61.49;99383.47;5092589;28;20268;-61
2022/08/05 00:07:07;;;;;;;9.05;8.15;;;;;;;25.17;62.08;99387.38;5092358;28;20576;-60
2022/08/05 00:09:34;;;;;;;11.23;8.25;;;;;;;25.04;62.37;99383.34;5092162;28;20203;-61
2022/08/05 00:12:01;;;;;;;8.60;7.85;;;;;;;24.98;62.94;99382.06;5092199;28;20219;-61
2022/08/05 00:14:28;;;;;;;9.85;7.97;;;;;;;24.87;63.57;99387.47;5091963;28;20203;-63
2022/08/05 00:16:56;;;;;;;8.60;7.85;;;;;;;24.75;63.45;99380.59;5094153;28;20210;-63
2022/08/05 00:19:23;;;;;;;9.48;7.55;;;;;;;24.74;63.40;99376.28;5092053;28;20198;-61
2022/08/05 00:21:50;;;;;;;8.98;7.53;;;;;;;24.61;63.43;99380.03;5092226;28;20580;-62
2022/08/05 00:24:17;;;;;;;9.93;6.70;;;;;;;24.41;63.13;99378.28;5092126;28;20199;-61
2022/08/05 00:26:44;;;;;;;7.70;7.00;;;;;;;24.36;63.44;99382.34;5091764;28;20202;-60
2022/08/05 00:29:11;;;;;;;14.73;7.55;;;;;;;24.22;64.16;99378.25;5091536;28;20206;-61
2022/08/05 00:31:38;;;;;;;9.70;6.97;;;;;;;24.18;64.81;99374.13;5091772;28;20202;-60
2022/08/05 00:34:06;;;;;;;8.07;7.28;;;;;;;24.10;66.03;99371.31;5091996;28;20299;-60
2022/08/05 00:36:33;;;;;;;8.02;7.22;;;;;;;24.00;67.21;99359.84;5091771;28;20229;-60
2022/08/05 00:39:00;;;;;;;10.30;7.70;;;;;;;23.99;68.18;99369.59;5091749;28;20282;-60
2022/08/05 00:41:28;;;;;;;10.18;7.40;;;;;;;24.00;68.37;99373.94;5091511;28;20234;-60
2022/08/05 00:43:55;;;;;;;10.30;7.40;;;;;;;23.93;68.44;99364.81;5091435;28;20195;-60
2022/08/05 00:46:22;;;;;;;10.02;7.20;;;;;;;23.87;67.68;99368.00;5091658;28;20218;-60
2022/08/05 00:48:49;;;;;;;8.07;7.28;;;;;;;23.82;67.42;99368.38;5091458;28;20201;-61
2022/08/05 00:51:18;;;;;;;9.27;7.20;;;;;;;23.82;67.07;99359.59;5091365;28;20191;-60
2022/08/05 00:53:45;;;;;;;10.75;7.28;;;;;;;23.82;66.53;99368.38;5091243;28;20205;-62
2022/08/05 00:56:12;;;;;;;12.23;6.25;;;;;;;23.81;66.25;99361.44;5091002;28;20222;-64
2022/08/05 00:58:39;;;;;;;13.27;6.97;;;;;;;23.68;66.61;99349.34;5091027;28;20289;-64
2022/08/05 01:01:06;;;;;;;11.15;6.78;;;;;;;23.68;66.55;99354.66;5090972;28;20199;-62
2022/08/05 01:03:33;;;;;;;11.20;6.45;;;;;;;23.78;66.49;99360.84;5091177;28;20203;-62
2022/08/05 01:06:01;;;;;;;8.77;6.70;;;;;;;23.78;66.36;99364.34;5091106;28;20599;-62
2022/08/05 01:08:29;;;;;;;10.23;7.13;;;;;;;23.80;65.95;99361.56;5090914;28;20209;-62
2022/08/05 01:11:00;;;;;;;9.25;6.97;;;;;;;23.73;65.79;99355.94;5090830;28;20198;-61
2022/08/05 01:13:34;;;;;;;10.18;7.07;;;;;;;23.86;65.58;99361.84;5090965;28;20194;-61
2022/08/05 01:16:04;;;;;;;13.65;6.97;;;;;;;23.89;65.68;99364.25;5091138;28;20204;-62
2022/08/05 01:18:38;;;;;;;12.25;7.40;;;;;;;23.87;65.83;99363.53;5090819;28;20199;-62
2022/08/05 01:21:12;;;;;;;9.15;7.30;;;;;;;23.82;66.06;99356.94;5090884;28;20256;-61
2022/08/05 01:24:02;;;;;;;7.88;7.00;;;;;;;23.77;66.42;99360.00;5091308;28;20206;-61
2022/08/05 01:26:40;;;;;;;9.18;6.88;;;;;;;23.81;66.57;99361.44;5090617;28;20198;-61
2022/08/05 01:29:13;;;;;;;7.10;6.50;;;;;;;23.91;66.35;99363.28;5090790;28;20203;-61
2022/08/05 01:31:46;;;;;;;7.13;6.47;;;;;;;23.68;66.98;99354.66;5090546;28;20195;-59
2022/08/05 01:34:17;;;;;;;7.95;7.07;;;;;;;23.70;67.90;99365.97;5090542;28;20278;-61
2022/08/05 01:36:49;;;;;;;7.40;6.78;;;;;;;23.62;68.68;99371.06;5090384;28;20227;-62
2022/08/05 01:39:18;;;;;;;7.75;6.55;;;;;;;23.47;69.57;99362.59;5090579;28;20201;-60
2022/08/05 01:41:47;;;;;;;7.78;7.07;;;;;;;23.40;69.80;99367.53;5090289;28;20231;-62
2022/08/05 01:44:16;;;;;;;7.45;6.63;;;;;;;23.32;70.10;99369.16;5090357;28;20637;-64
2022/08/05 01:46:45;;;;;;;8.00;6.70;;;;;;;23.29;69.64;99372.06;5090540;28;20202;-61
2022/08/05 01:49:17;;;;;;;6.75;6.15;;;;;;;23.26;68.90;99367.84;5090461;28;20286;-61
2022/08/05 01:51:44;;;;;;;6.22;5.63;;;;;;;23.22;68.34;99361.16;5090372;28;20191;-61
2022/08/05 01:54:15;;;;;;;6.82;6.32;;;;;;;23.11;68.64;99370.00;5090297;28;20191;-62
2022/08/05 01:56:44;;;;;;;9.13;7.10;;;;;;;23.05;68.98;99361.69;5090031;28;20258;-60
2022/08/05 01:59:15;;;;;;;6.63;6.03;;;;;;;23.00;68.62;99364.75;5090335;28;20203;-63
2022/08/05 02:01:46;;;;;;;7.35;6.68;;;;;;;22.97;68.80;99366.78;5090279;28;20195;-62
2022/08/05 02:04:18;;;;;;;7.70;6.43;;;;;;;22.91;69.39;99364.66;5090228;28;20594;-61
2022/08/05 02:06:45;;;;;;;9.60;6.57;;;;;;;22.87;69.20;99363.22;5090222;28;20201;-62
2022/08/05 02:09:12;;;;;;;7.10;6.32;;;;;;;22.90;69.41;99373.56;5090082;28;20195;-62
2022/08/05 02:11:45;;;;;;;6.95;6.45;;;;;;;22.91;69.28;99364.66;5097686;28;20187;-62
2022/08/05 02:14:15;;;;;;;6.60;6.03;;;;;;;22.86;69.75;99369.47;5102014;28;20209;-61
2022/08/05 02:16:47;;;;;;;10.93;6.47;;;;;;;22.80;70.44;99368.16;5102395;28;20401;-62
2022/08/05 02:19:24;;;;;;;8.80;6.78;;;;;;;22.75;70.64;99375.59;5102230;28;20194;-62
2022/08/05 02:22:02;;;;;;;9.30;6.50;;;;;;;22.82;70.40;99374.16;5103396;28;20194;-61
2022/08/05 02:24:41;;;;;;;7.40;6.63;;;;;;;22.81;69.88;99375.97;5103219;28;20238;-61
2022/08/05 02:27:10;;;;;;;7.18;6.47;;;;;;;22.75;69.75;99368.53;5103059;28;20197;-61
2022/08/05 02:29:40;;;;;;;9.52;6.47;;;;;;;22.63;70.26;99369.50;5101984;28;20191;-61
2022/08/05 02:32:11;;;;;;;6.35;5.88;;;;;;;22.61;70.59;99367.94;5102993;28;20191;-61
2022/08/05 02:34:38;;;;;;;7.30;6.63;;;;;;;22.60;71.16;99372.38;5104207;28;20273;-62
2022/08/05 02:37:09;;;;;;;7.35;6.75;;;;;;;22.54;71.78;99369.41;5102494;28;20611;-61
2022/08/05 02:39:38;;;;;;;8.45;6.88;;;;;;;22.48;72.52;99364.59;5101909;28;20676;-61
2022/08/05 02:42:08;;;;;;;7.75;7.07;;;;;;;22.39;73.15;99359.09;5103893;28;20280;-62
2022/08/05 02:44:37;;;;;;;7.80;7.03;;;;;;;22.40;73.29;99358.13;5102648;28;20632;-62
2022/08/05 02:47:06;;;;;;;7.57;6.68;;;;;;;22.40;73.71;99359.94;5103692;28;20194;-61
2022/08/05 02:49:36;;;;;;;7.40;6.68;;;;;;;22.32;74.00;99357.91;5102235;28;20210;-63
2022/08/05 02:52:06;;;;;;;6.78;6.25;;;;;;;22.37;73.95;99368.09;5101502;28;20278;-62
2022/08/05 02:54:35;;;;;;;7.95;7.13;;;;;;;22.31;74.09;99365.97;5099899;28;20191;-61
2022/08/05 02:57:02;;;;;;;7.00;6.40;;;;;;;22.30;74.33;99359.81;5093063;28;20227;-62
2022/08/05 02:59:30;;;;;;;8.88;6.63;;;;;;;22.26;74.22;99361.03;5092656;28;20219;-62
2022/08/05 03:01:59;;;;;;;8.57;6.78;;;;;;;22.32;73.83;99363.19;5100991;28;20222;-73
2022/08/05 03:04:27;;;;;;;7.50;6.97;;;;;;;22.31;73.64;99369.44;5095766;28;20284;-73
2022/08/05 03:06:55;;;;;;;7.60;6.85;;;;;;;22.32;73.31;99365.84;5092889;28;20223;-72
2022/08/05 03:09:23;;;;;;;6.80;6.40;;;;;;;22.37;72.64;99360.16;5092848;28;20233;-62
2022/08/05 03:11:50;;;;;;;6.53;6.07;;;;;;;22.36;72.36;99361.13;5092701;28;20215;-61
2022/08/05 03:14:17;;;;;;;7.18;6.45;;;;;;;22.37;72.36;99366.28;5092853;28;20559;-62
2022/08/05 03:16:44;;;;;;;7.03;6.40;;;;;;;22.28;73.22;99369.69;5092881;28;20229;-62
2022/08/05 03:19:11;;;;;;;11.52;7.18;;;;;;;22.25;73.38;99367.25;5093680;28;20215;-63
2022/08/05 03:21:38;;;;;;;7.28;6.63;;;;;;;22.15;73.89;99368.97;5112988;28;20213;-74
2022/08/05 03:24:08;;;;;;;10.40;6.90;;;;;;;22.08;73.95;99359.84;5113667;28;20675;-74
2022/08/05 03:26:36;;;;;;;7.13;6.40;;;;;;;22.21;73.35;99371.13;5099540;28;20191;-63
2022/08/05 03:29:03;;;;;;;7.40;6.35;;;;;;;22.22;72.69;99362.25;5100776;28;20726;-63
2022/08/05 03:31:30;;;;;;;8.48;6.32;;;;;;;22.21;72.73;99360.56;5102259;28;20282;-63
2022/08/05 03:33:58;;;;;;;6.75;6.00;;;;;;;22.28;72.70;99372.31;5102234;28;20191;-63
2022/08/05 03:36:25;;;;;;;9.15;6.40;;;;;;;22.27;71.95;99368.00;5100625;28;20312;-63
2022/08/05 03:38:52;;;;;;;6.38;5.88;;;;;;;22.24;72.44;99373.50;5101540;28;20215;-63
2022/08/05 03:41:20;;;;;;;6.55;6.13;;;;;;;22.29;71.68;99374.00;5098085;28;20292;-63
2022/08/05 03:43:47;;;;;;;7.28;5.90;;;;;;;22.37;71.06;99368.09;5105287;28;20583;-62
2022/08/05 03:46:14;;;;;;;6.53;5.82;;;;;;;22.44;69.78;99371.97;5107593;28;20293;-63
2022/08/05 03:48:41;;;;;;;6.28;5.80;;;;;;;22.49;69.02;99376.84;5103478;28;20191;-63
2022/08/05 03:51:13;;;;;;;6.80;6.22;;;;;;;22.52;68.65;99376.63;5100509;28;20195;-63
2022/08/05 03:53:48;;;;;;;5.72;5.28;;;;;;;22.41;69.17;99380.13;5100919;28;20277;-63
2022/08/05 03:56:22;;;;;;;6.50;6.13;;;;;;;22.39;69.13;99374.13;5100479;28;20611;-62
2022/08/05 03:58:53;;;;;;;7.03;6.38;;;;;;;22.45;68.89;99377.13;5107049;28;20248;-63
2022/08/05 04:01:22;;;;;;;6.55;6.00;;;;;;;22.68;68.31;99375.28;5103274;28;20673;-64
2022/08/05 04:03:51;;;;;;;8.73;6.80;;;;;;;23.54;64.80;99382.31;5099594;28;20515;-61
2022/08/05 04:06:19;;;;;;;7.50;6.70;;;;;;;24.67;60.73;99380.47;5102898;28;20660;-60
2022/08/05 04:08:47;;;;;;;7.70;6.88;;;;;;;25.57;57.20;99375.75;5111932;28;20671;-60
2022/08/05 04:11:15;;;;;;;6.70;6.18;;;;;;;26.17;54.66;99376.31;5111642;28;20232;-60
2022/08/05 04:13:42;;;;;;;7.22;6.45;;;;;;;26.83;52.44;99378.78;5111799;28;20286;-59
2022/08/05 04:16:13;;;;;;;8.70;6.35;;;;;;;27.71;49.57;99377.91;5110681;28;20201;-60
2022/08/05 04:18:39;;;;;;;7.70;6.85;;;;;;;28.37;47.75;99377.28;5110148;28;20250;-60
2022/08/05 04:21:07;;;;;;;6.80;6.20;;;;;;;29.08;45.70;99385.69;5098433;28;20593;-61
2022/08/05 04:23:36;;;;;;;7.15;6.53;;;;;;;29.82;43.82;99381.16;5096580;28;20281;-60
2022/08/05 04:26:03;;;;;;;13.32;11.98;;;;;;;30.68;41.98;99378.59;5110899;28;20198;-60
2022/08/05 04:28:31;;;;;;;14.68;12.38;;;;;;;31.57;39.57;99386.00;5110032;28;20202;-62
2022/08/05 04:30:58;;;;;;;7.00;6.50;;;;;;;31.80;38.76;99385.13;5110459;28;20668;-62
2022/08/05 04:33:26;;;;;;;10.13;9.07;;;;;;;32.23;37.66;99367.41;5107573;28;20294;-63
2022/08/05 04:35:53;;;;;;;8.43;6.95;;;;;;;32.61;37.12;99378.84;5099893;28;20226;-63
2022/08/05 04:38:20;;;;;;;7.68;6.40;;;;;;;32.53;37.17;99373.53;5099993;28;20211;-63
2022/08/05 04:40:47;;;;;;;7.15;6.28;;;;;;;33.35;35.52;99382.97;5098388;28;20652;-63
2022/08/05 04:43:14;;;;;;;13.07;7.03;;;;;;;33.89;34.87;99377.81;5099891;28;20707;-63
2022/08/05 04:45:41;;;;;;;13.35;7.63;;;;;;;34.24;33.58;99385.88;5106311;28;20568;-63
2022/08/05 04:48:10;;;;;;;8.80;8.10;;;;;;;34.67;33.16;99385.69;5109252;28;20285;-63
2022/08/05 04:50:43;;;;;;;6.57;5.80;;;;;;;35.24;32.43;99383.34;5109425;28;20679;-63
2022/08/05 04:53:12;;;;;;;15.20;8.48;;;;;;;35.77;31.58;99385.28;5109212;28;20201;-64
2022/08/05 04:55:40;;;;;;;8.20;7.35;;;;;;;36.19;30.81;99386.66;5108973;28;20205;-63
2022/08/05 04:58:08;;;;;;;7.28;6.70;;;;;;;36.71;30.19;99389.19;5108854;28;20230;-64
2022/08/05 05:00:37;;;;;;;6.75;5.80;;;;;;;36.85;29.79;99392.66;5109534;28;20239;-63
2022/08/05 05:03:05;;;;;;;8.45;5.43;;;;;;;37.15;29.57;99392.88;5110086;28;20754;-64
2022/08/05 05:05:33;;;;;;;9.05;8.18;;;;;;;37.15;29.32;99382.06;5110335;28;20194;-63
2022/08/05 05:08:03;;;;;;;6.82;6.25;;;;;;;37.63;29.04;99400.50;5103733;28;20282;-63
2022/08/05 05:10:31;;;;;;;15.75;14.30;;;;;;;38.04;28.21;99403.41;5104772;28;20596;-62
2022/08/05 05:12:58;;;;;;;8.27;4.90;;;;;;;38.65;27.39;99399.84;5097270;28;20199;-64
2022/08/05 05:15:25;;;;;;;5.90;5.38;;;;;;;38.90;26.61;99401.59;5089922;28;20667;-64
2022/08/05 05:17:52;;;;;;;12.60;7.80;;;;;;;39.14;26.49;99404.19;5090221;28;20568;-63
2022/08/05 05:20:19;;;;;;;5.88;5.28;;;;;;;39.81;25.84;99393.09;5088745;28;20308;-64
2022/08/05 05:22:46;;;;;;;9.57;8.77;;;;;;;40.02;25.39;99387.06;5102757;28;20221;-62
2022/08/05 05:25:14;;;;;;;8.65;6.60;;;;;;;39.99;25.47;99392.16;5109694;28;20214;-63
2022/08/05 05:27:41;;;;;;;5.60;4.63;;;;;;;40.65;24.67;99388.94;5109658;28;20221;-63
2022/08/05 05:30:09;;;;;;;5.10;4.70;;;;;;;41.21;24.31;99398.19;5109686;28;20301;-63
2022/08/05 05:32:36;;;;;;;8.02;4.70;;;;;;;40.72;24.32;99388.84;5108342;28;20699;-63
2022/08/05 05:35:03;;;;;;;8.02;5.95;;;;;;;40.50;24.43;99391.38;5102991;27;20228;-64
2022/08/05 05:37:30;;;;;;;5.03;4.53;;;;;;;40.14;24.61;99382.44;5108939;28;20222;-63
2022/08/05 05:39:57;;;;;;;5.75;5.43;;;;;;;40.28;24.52;99372.16;5109482;28;20545;-64
2022/08/05 05:42:25;;;;;;;7.60;5.75;;;;;;;40.59;24.27;99388.03;5109280;28;20321;-65
2022/08/05 05:44:52;;;;;;;7.50;4.60;;;;;;;40.68;24.01;99390.34;5106581;28;20283;-63
2022/08/05 05:47:19;;;;;;;5.15;4.85;;;;;;;40.69;24.06;99389.28;5099457;28;20324;-62
2022/08/05 05:49:46;;;;;;;8.20;4.22;;;;;;;40.38;24.28;99393.31;5098679;28;20193;-62
2022/08/05 05:52:13;;;;;;;7.60;4.90;;;;;;;40.75;24.01;99393.81;5098944;28;20251;-64
2022/08/05 05:54:40;;;;;;;12.43;4.80;;;;;;;40.79;24.13;99398.50;5100210;28;20190;-62
2022/08/05 05:57:06;;;;;;;5.97;4.30;;;;;;;40.97;24.08;99389.31;5095348;28;20190;-64
2022/08/05 05:59:35;;;;;;;5.25;4.50;;;;;;;41.37;23.27;99391.94;5090098;28;20225;-63
2022/08/05 06:02:02;;;;;;;10.38;4.30;;;;;;;41.30;23.29;99392.13;5090030;28;20285;-62
2022/08/05 06:04:29;;;;;;;8.82;4.43;;;;;;;41.15;23.35;99393.75;5098291;28;20574;-63
2022/08/05 06:06:55;;;;;;;4.47;4.05;;;;;;;41.19;23.45;99392.19;5098831;28;20194;-63
2022/08/05 06:09:22;;;;;;;4.50;4.20;;;;;;;40.94;23.14;99385.19;5102127;28;20289;-63
2022/08/05 06:11:49;;;;;;;4.85;4.10;;;;;;;40.86;23.10;99380.13;5101116;28;20710;-64
2022/08/05 06:14:16;;;;;;;7.93;4.70;;;;;;;41.03;23.66;99391.06;5095105;28;20282;-63
2022/08/05 06:16:44;;;;;;;5.13;4.63;;;;;;;40.06;24.33;99387.44;5095903;28;20194;-65
2022/08/05 06:19:11;;;;;;;4.47;4.03;;;;;;;40.20;24.13;99381.47;5110457;28;20305;-64
2022/08/05 06:21:38;;;;;;;4.95;4.47;;;;;;;40.73;23.79;99390.50;5110286;28;20226;-64
2022/08/05 06:24:07;;;;;;;10.05;4.53;;;;;;;41.49;23.27;99389.97;5110533;28;20215;-63
2022/08/05 06:26:33;;;;;;;9.57;4.70;;;;;;;40.93;23.38;99388.16;5103656;28;20205;-63
2022/08/05 06:29:01;;;;;;;4.72;4.22;;;;;;;41.33;23.08;99380.72;5103791;28;20720;-63
2022/08/05 06:31:27;;;;;;;7.43;4.38;;;;;;;40.80;24.05;99385.72;5098056;28;20191;-64
2022/08/05 06:33:56;;;;;;;5.13;4.70;;;;;;;40.91;23.73;99393.00;5099169;28;20190;-64
2022/08/05 06:36:23;;;;;;;5.05;4.68;;;;;;;40.89;23.80;99384.25;5100666;28;20186;-62
2022/08/05 06:38:52;;;;;;;5.40;4.07;;;;;;;40.63;24.07;99386.47;5098928;28;20214;-64
2022/08/05 06:41:19;;;;;;;4.53;4.32;;;;;;;40.72;24.06;99389.69;5095758;28;20686;-65
2022/08/05 06:43:46;;;;;;;5.68;5.30;;;;;;;40.89;24.12;99379.63;5090033;28;20669;-64
2022/08/05 06:46:13;;;;;;;10.27;7.75;;;;;;;40.38;24.54;99383.25;5094925;28;20197;-62
2022/08/05 06:48:40;;;;;;;7.65;4.93;;;;;;;39.98;24.87;99388.59;5098364;28;20191;-64
2022/08/05 06:51:09;;;;;;;8.10;6.13;;;;;;;40.05;25.06;99383.88;5099459;28;20190;-63
2022/08/05 06:53:36;;;;;;;6.15;5.55;;;;;;;39.89;25.37;99384.59;5100405;28;20616;-64
2022/08/05 06:56:03;;;;;;;7.75;5.68;;;;;;;39.84;25.44;99370.88;5098492;28;20201;-64
2022/08/05 06:58:30;;;;;;;6.03;5.50;;;;;;;39.84;25.24;99384.47;5104031;28;20221;-63
2022/08/05 07:00:58;;;;;;;14.85;11.90;;;;;;;40.00;25.26;99383.75;5113369;28;20285;-63
2022/08/05 07:03:25;;;;;;;8.98;7.00;;;;;;;39.91;25.53;99386.03;5113781;28;20194;-63
2022/08/05 07:05:52;;;;;;;11.15;8.10;;;;;;;40.07;25.80;99380.94;5113921;28;20206;-63
2022/08/05 07:08:21;;;;;;;7.13;6.50;;;;;;;39.73;26.01;99379.88;5113593;28;20225;-63
2022/08/05 07:10:49;;;;;;;6.20;5.32;;;;;;;39.86;25.99;99374.19;5114089;28;20202;-63
2022/08/05 07:18:44;;;;;;;5.03;4.60;;;;;;;40.29;25.37;99373.00;5113932;28;20685;-62
2022/08/05 07:21:11;;;;;;;5.13;4.68;;;;;;;40.12;25.55;99381.84;5113511;28;20667;-64
2022/08/05 07:23:40;;;;;;;5.43;5.00;;;;;;;39.88;26.24;99372.91;5113349;28;20200;-63
2022/08/05 07:26:07;;;;;;;5.70;5.15;;;;;;;39.82;26.27;99378.44;5103197;28;20194;-63
2022/08/05 07:28:34;;;;;;;8.82;5.10;;;;;;;40.06;25.82;99382.00;5104534;28;20237;-63
2022/08/05 07:31:01;;;;;;;7.25;5.13;;;;;;;40.76;25.14;99371.75;5113550;28;20205;-63
2022/08/05 07:33:28;;;;;;;9.55;5.75;;;;;;;40.88;25.14;99371.72;5113268;28;20226;-63
2022/08/05 07:35:55;;;;;;;5.13;4.63;;;;;;;41.09;25.18;99372.91;5113270;28;20280;-62
2022/08/05 07:38:22;;;;;;;5.75;5.25;;;;;;;41.74;24.59;99370.50;5113096;28;20224;-63
2022/08/05 07:40:50;;;;;;;8.27;5.07;;;;;;;42.67;23.33;99379.63;5112955;28;20237;-63
2022/08/05 07:43:17;;;;;;;8.02;4.40;;;;;;;42.59;22.89;99374.63;5108686;28;20273;-63
2022/08/05 07:45:44;;;;;;;9.77;4.97;;;;;;;43.00;23.48;99379.47;5095494;28;20225;-62
2022/08/05 07:48:12;;;;;;;6.05;4.90;;;;;;;42.83;22.78;99377.91;5105367;28;20194;-63
2022/08/05 07:50:38;;;;;;;5.25;4.80;;;;;;;42.38;23.33;99373.56;5112322;28;20305;-65
2022/08/05 07:53:05;;;;;;;6.82;4.45;;;;;;;42.31;23.79;99372.91;5111795;28;20197;-64
2022/08/05 07:55:32;;;;;;;5.10;4.60;;;;;;;42.38;23.09;99368.94;5112784;28;20200;-64
2022/08/05 07:58:01;;;;;;;7.15;5.07;;;;;;;42.40;23.14;99365.97;5112911;28;20697;-63
2022/08/05 08:00:27;;;;;;;5.78;5.20;;;;;;;42.96;23.22;99367.41;5112809;28;20294;-63
2022/08/05 08:02:54;;;;;;;5.70;5.10;;;;;;;42.94;23.13;99366.00;5112638;28;20288;-63
2022/08/05 08:05:21;;;;;;;5.45;5.00;;;;;;;42.76;23.29;99364.44;5112719;28;20194;-64
2022/08/05 08:07:48;;;;;;;5.00;4.60;;;;;;;42.69;23.17;99350.16;5112574;28;20281;-63
2022/08/05 08:10:15;;;;;;;4.97;4.47;;;;;;;43.24;22.82;99357.28;5112549;28;20194;-63
2022/08/05 08:12:42;;;;;;;5.20;4.70;;;;;;;43.48;22.58;99364.03;5111933;28;20193;-63
2022/08/05 08:15:11;;;;;;;6.63;4.97;;;;;;;43.86;21.88;99362.13;5112280;28;20194;-63
2022/08/05 08:17:38;;;;;;;5.47;4.85;;;;;;;43.61;22.48;99363.59;5112279;28;20190;-63
2022/08/05 08:20:06;;;;;;;5.40;5.07;;;;;;;43.19;22.55;99351.78;5112194;28;20253;-63
2022/08/05 08:22:33;;;;;;;9.70;4.63;;;;;;;43.06;22.82;99353.84;5112332;28;20679;-62
2022/08/05 08:25:00;;;;;;;11.82;5.18;;;;;;;43.18;22.91;99359.16;5112500;28;20568;-64
2022/08/05 08:27:27;;;;;;;4.65;4.28;;;;;;;42.11;24.11;99357.09;5112260;28;20198;-64
2022/08/05 08:29:54;;;;;;;5.03;4.50;;;;;;;41.50;24.68;99337.13;5101664;28;20190;-62
2022/08/05 08:32:22;;;;;;;6.63;4.70;;;;;;;41.62;24.10;99350.69;5094987;28;20882;-63
2022/08/05 08:34:50;;;;;;;8.35;4.70;;;;;;;41.68;24.02;99339.59;5098240;28;20195;-62
2022/08/05 08:37:17;;;;;;;4.78;4.38;;;;;;;41.52;24.14;99343.16;5090551;28;20193;-63
2022/08/05 08:39:44;;;;;;;5.43;4.50;;;;;;;41.20;24.38;99344.81;5090387;28;20298;-63
2022/08/05 08:42:11;;;;;;;6.00;4.38;;;;;;;41.15;24.70;99333.84;5089888;28;20306;-64
2022/08/05 08:44:39;;;;;;;5.20;4.70;;;;;;;41.11;24.86;99332.63;5090418;28;20194;-63
2022/08/05 08:47:07;;;;;;;4.65;3.92;;;;;;;40.80;24.86;99326.66;5090103;28;20193;-63
2022/08/05 08:49:38;;;;;;;6.85;4.55;;;;;;;40.22;25.21;99335.84;5090254;28;20201;-63
2022/08/05 08:52:12;;;;;;;4.35;3.97;;;;;;;40.06;25.13;99328.44;5089832;28;20195;-63
2022/08/05 08:54:39;;;;;;;4.32;4.10;;;;;;;39.88;25.41;99315.00;5090019;28;20190;-62
2022/08/05 08:57:07;;;;;;;4.50;4.20;;;;;;;40.02;25.11;99329.16;5090048;28;20658;-63
2022/08/05 08:59:35;;;;;;;4.65;4.25;;;;;;;39.86;24.83;99315.22;5089911;28;20611;-62
2022/08/05 09:02:05;;;;;;;4.57;4.07;;;;;;;39.87;24.84;99313.34;5089845;28;20220;-63
2022/08/05 09:04:36;;;;;;;5.93;4.30;;;;;;;39.38;25.07;99307.31;5090089;28;20268;-62
2022/08/05 09:07:06;;;;;;;5.82;4.40;;;;;;;39.39;25.30;99306.25;5095233;28;20278;-63
2022/08/05 09:09:33;;;;;;;4.07;3.85;;;;;;;39.46;24.54;99298.81;5099247;28;20186;-63
2022/08/05 09:12:00;;;;;;;9.40;6.82;;;;;;;39.76;24.76;99306.00;5094901;28;20244;-62
2022/08/05 09:14:27;;;;;;;8.73;4.25;;;;;;;40.06;25.11;99303.97;5088598;28;20586;-62
2022/08/05 09:16:54;;;;;;;4.13;3.67;;;;;;;39.55;24.42;99291.97;5094555;28;20234;-64
2022/08/05 09:19:21;;;;;;;4.18;3.88;;;;;;;39.66;24.79;99292.19;5096767;28;20225;-64
2022/08/05 09:21:48;;;;;;;8.02;5.00;;;;;;;39.61;24.54;99294.81;5095921;28;20692;-64
2022/08/05 09:24:17;;;;;;;3.88;3.50;;;;;;;39.60;23.72;99283.13;5096000;28;21262;-63
2022/08/05 09:26:49;;;;;;;4.50;4.20;;;;;;;39.41;23.83;99279.69;5101655;28;20198;-63
2022/08/05 09:29:16;;;;;;;6.90;3.53;;;;;;;39.22;23.97;99281.66;5102093;28;20195;-63
2022/08/05 09:31:43;;;;;;;3.70;3.50;;;;;;;39.45;23.85;99285.47;5101599;28;20202;-63
2022/08/05 09:34:12;;;;;;;5.05;3.38;;;;;;;39.62;23.51;99280.16;5102117;28;20201;-63
2022/08/05 09:36:44;;;;;;;3.58;3.33;;;;;;;39.61;23.26;99273.91;5101580;28;20590;-62
2022/08/05 09:39:12;;;;;;;3.60;3.25;;;;;;;39.23;23.56;99258.06;5095443;28;20225;-61
2022/08/05 09:41:57;;;;;;;4.45;4.15;;;;;;;39.20;23.84;99272.09;5095918;28;20236;-62
2022/08/05 09:44:34;;;;;;;3.83;3.50;;;;;;;39.16;24.01;99268.22;5101347;28;20194;-62
2022/08/05 09:47:10;;;;;;;7.95;3.60;;;;;;;39.03;24.43;99263.00;5101178;28;20198;-63
2022/08/05 09:49:45;;;;;;;7.88;3.63;;;;;;;38.67;24.92;99258.53;5095545;28;20663;-62
2022/08/05 09:52:20;;;;;;;4.20;3.80;;;;;;;38.93;24.16;99270.88;5095518;28;20202;-61
2022/08/05 09:54:57;;;;;;;4.75;3.58;;;;;;;39.02;24.40;99251.31;5100523;28;20280;-62
2022/08/05 09:57:37;;;;;;;6.10;3.85;;;;;;;39.22;24.11;99253.69;5098655;28;20645;-61
2022/08/05 10:00:10;;;;;;;5.65;3.67;;;;;;;39.47;23.81;99254.31;5098423;28;20249;-63
2022/08/05 10:02:39;;;;;;;3.47;3.38;;;;;;;39.62;23.67;99239.41;5098451;28;20680;-63
2022/08/05 10:05:10;;;;;;;9.18;3.90;;;;;;;39.50;23.48;99242.97;5099503;28;20582;-61
2022/08/05 10:07:48;;;;;;;4.03;3.83;;;;;;;39.40;23.99;99231.81;5100218;28;20289;-62
2022/08/05 10:10:16;;;;;;;7.93;4.22;;;;;;;39.45;24.09;99226.53;5099937;28;20248;-64
2022/08/05 10:12:47;;;;;;;4.10;3.90;;;;;;;38.95;24.30;99238.88;5098254;28;20190;-62
2022/08/05 10:15:20;;;;;;;6.22;3.92;;;;;;;38.99;24.28;99234.66;5098193;28;20204;-63
2022/08/05 10:18:11;;;;;;;4.97;4.45;;;;;;;39.28;24.57;99230.22;5098997;28;20637;-62
2022/08/05 10:20:40;;;;;;;4.57;4.28;;;;;;;38.68;24.47;99236.59;5099839;28;20308;-63
2022/08/05 10:23:07;;;;;;;4.38;4.13;;;;;;;38.74;24.47;99235.66;5098542;28;20199;-63
2022/08/05 10:25:34;;;;;;;4.22;3.45;;;;;;;38.60;24.70;99226.09;5098111;28;20194;-63
2022/08/05 10:28:03;;;;;;;4.57;4.32;;;;;;;38.70;24.77;99226.34;5097843;28;20264;-64
2022/08/05 10:30:30;;;;;;;4.63;4.18;;;;;;;38.28;24.83;99221.94;5098739;28;20590;-63
2022/08/05 10:32:58;;;;;;;4.28;4.07;;;;;;;38.18;25.27;99225.22;5099823;28;20194;-63
2022/08/05 10:35:26;;;;;;;4.45;4.15;;;;;;;37.36;25.49;99216.56;5101184;28;20217;-63
2022/08/05 10:37:54;;;;;;;3.97;3.50;;;;;;;37.02;26.15;99192.75;5102166;28;20198;-63
2022/08/05 10:40:33;;;;;;;11.25;4.13;;;;;;;36.96;26.93;99205.28;5101980;28;20257;-62
2022/08/05 10:43:09;;;;;;;6.95;3.83;;;;;;;37.05;26.98;99205.81;5101878;28;20225;-64
2022/08/05 10:45:36;;;;;;;4.57;4.18;;;;;;;36.48;27.43;99206.88;5101746;28;20217;-62
2022/08/05 10:48:36;;;;;;;4.22;4.03;;;;;;;36.24;28.24;99197.66;5101785;28;20195;-63
2022/08/05 10:51:07;;;;;;;4.28;3.92;;;;;;;36.08;27.92;99190.88;5100951;28;20191;-63
2022/08/05 10:53:37;;;;;;;4.63;4.32;;;;;;;35.70;28.15;99198.91;5108895;28;20224;-63
2022/08/05 10:56:06;;;;;;;4.32;4.13;;;;;;;35.65;28.35;99196.06;5097976;28;20191;-63
2022/08/05 10:58:35;;;;;;;4.32;3.97;;;;;;;35.53;28.29;99198.56;5102945;28;20278;-63
2022/08/05 11:01:05;;;;;;;6.03;5.60;;;;;;;35.50;28.62;99177.41;5098716;28;20297;-63
2022/08/05 11:03:33;;;;;;;4.22;4.03;;;;;;;35.55;28.33;99182.19;5097743;28;20202;-63
2022/08/05 11:06:11;;;;;;;6.05;4.22;;;;;;;35.47;28.35;99168.88;5098090;28;20194;-63
2022/08/05 11:08:37;;;;;;;5.55;3.85;;;;;;;35.57;28.63;99174.66;5100629;28;20587;-64
2022/08/05 11:11:34;;;;;;;5.20;4.07;;;;;;;35.66;28.42;99176.09;5101522;28;20187;-63
2022/08/05 11:14:03;;;;;;;4.63;4.15;;;;;;;35.79;28.50;99167.97;5100432;28;20195;-64
2022/08/05 11:16:31;;;;;;;3.97;3.78;;;;;;;35.65;28.83;99159.06;5091931;28;20731;-63
2022/08/05 11:19:26;;;;;;;4.82;4.38;;;;;;;35.66;29.05;99157.22;5091577;28;20206;-63
2022/08/05 11:21:54;;;;;;;4.57;4.18;;;;;;;35.88;28.73;99166.69;5097681;27;20285;-64
2022/08/05 11:24:22;;;;;;;6.30;3.97;;;;;;;35.78;28.23;99142.00;5098089;28;20213;-62
2022/08/05 11:26:50;;;;;;;4.72;4.28;;;;;;;36.04;28.55;99146.41;5097922;28;20256;-63
2022/08/05 11:29:36;;;;;;;4.55;4.30;;;;;;;36.11;27.90;99151.81;5104025;28;20217;-62
2022/08/05 11:32:26;;;;;;;6.38;4.30;;;;;;;36.09;28.36;99149.31;5102610;28;20192;-63
2022/08/05 11:34:53;;;;;;;4.47;3.30;;;;;;;36.11;27.43;99151.81;5100581;28;20202;-63
2022/08/05 11:37:58;;;;;;;4.60;4.03;;;;;;;36.08;27.65;99136.03;5099027;28;20480;-63
2022/08/05 11:40:59;;;;;;;9.43;4.72;;;;;;;36.31;27.75;99139.84;5100435;28;20604;-62
2022/08/05 11:43:26;;;;;;;4.38;4.18;;;;;;;36.32;27.99;99146.06;5095045;28;20195;-62
2022/08/05 11:45:55;;;;;;;5.25;4.05;;;;;;;36.44;27.68;99136.22;5093556;28;20279;-61
2022/08/05 11:48:22;;;;;;;4.85;4.15;;;;;;;36.51;27.80;99139.69;5105049;28;20191;-61